createdAt,value
2017-08-18T00:05:07.609Z,99891.48
2017-08-18T00:15:30.541Z,99884.49
2017-08-18T00:25:53.161Z,99878.80
2017-08-18T00:36:15.824Z,99896.87
2017-08-18T00:46:38.383Z,99875.41
2017-08-18T00:57:00.288Z,99874.48
2017-08-18T01:07:21.525Z,99885.23
2017-08-18T01:17:44.424Z,99879.09
2017-08-18T01:28:07.009Z,99873.09
2017-08-18T01:38:30.511Z,99866.66
2017-08-18T01:48:52.467Z,99870.78
2017-08-18T01:59:14.137Z,99864.77
2017-08-18T02:09:36.989Z,99848.84
2017-08-18T02:19:59.721Z,99828.63
2017-08-18T02:30:22.372Z,99816.81
2017-08-18T02:46:01.893Z,99819.42
2017-08-18T02:51:08.537Z,99809.33
2017-08-18T03:01:30.524Z,99833.64
2017-08-18T03:11:52.668Z,99840.92
2017-08-18T03:22:15.759Z,99827.16
2017-08-18T03:32:39.234Z,99844.16
2017-08-18T03:48:17.845Z,99860.20
2017-08-18T03:58:40.353Z,99843.90
2017-08-18T04:09:02.918Z,99849.02
2017-08-18T04:19:25.593Z,99842.77
2017-08-18T04:29:47.393Z,99843.70
2017-08-18T04:40:09.239Z,99815.23
2017-08-18T04:50:31.894Z,99794.81
2017-08-18T05:00:53.682Z,99794.87
2017-08-18T05:11:15.894Z,99825.50
2017-08-18T05:21:37.839Z,99835.43
2017-08-18T05:32:03.943Z,99825.34
2017-08-18T05:47:41.809Z,99843.83
2017-08-18T05:58:05.975Z,99814.50
2017-08-18T06:08:29.091Z,99825.30
2017-08-18T06:18:51.636Z,99820.82
2017-08-18T06:30:16.912Z,99808.58
2017-08-18T06:45:55.087Z,99798.48
2017-08-18T06:56:17.012Z,99792.91
2017-08-18T07:06:41.293Z,99773.80
2017-08-18T07:17:04.081Z,99770.63
2017-08-18T07:27:26.312Z,99775.31
2017-08-18T07:37:48.166Z,99753.73
2017-08-18T07:48:11.820Z,99771.52
2017-08-18T07:58:34.015Z,99779.44
2017-08-18T08:08:56.523Z,99788.55
2017-08-18T08:19:19.919Z,99798.45
2017-08-18T08:29:45.699Z,99781.41
2017-08-18T08:45:25.333Z,99779.53
2017-08-18T08:55:47.973Z,99797.91
2017-08-18T09:06:11.803Z,99818.78
2017-08-18T09:16:34.352Z,99806.62
2017-08-18T09:37:54.586Z,99762.02
2017-08-18T09:48:46.432Z,99704.53
2017-08-18T09:59:38.572Z,99720.09
2017-08-18T10:10:14.217Z,99725.97
2017-08-18T10:20:41.205Z,99714.26
2017-08-18T10:31:14.885Z,99728.98
2017-08-18T10:47:06.747Z,99704.67
2017-08-18T10:57:28.644Z,99702.84
2017-08-18T11:07:52.056Z,99685.89
2017-08-18T11:18:15.473Z,99689.65
2017-08-18T11:28:37.470Z,99707.20
2017-08-18T11:44:42.728Z,99683.89
2017-08-18T11:55:09.367Z,99677.80
2017-08-18T12:05:33.942Z,99663.36
2017-08-18T12:16:13.167Z,99646.88
2017-08-18T12:26:40.881Z,99652.36
2017-08-18T12:37:11.443Z,99649.76
2017-08-18T12:47:34.231Z,99635.92
2017-08-18T12:57:57.644Z,99630.02
2017-08-18T13:08:20.572Z,99612.66
2017-08-18T13:18:42.504Z,99602.32
2017-08-18T13:29:04.281Z,99587.07
2017-08-18T13:44:42.917Z,99588.70
2017-08-18T13:55:10.810Z,99576.48
2017-08-18T14:05:44.988Z,99564.47
2017-08-18T14:16:07.661Z,99546.70
2017-08-18T14:26:35.117Z,99544.85
2017-08-18T14:36:57.783Z,99539.88
2017-08-18T14:47:24.583Z,99533.77
2017-08-18T14:57:47.308Z,99537.31
2017-08-18T15:08:09.844Z,99544.25
2017-08-18T15:18:32.414Z,99527.89
2017-08-18T15:28:54.990Z,99543.33
2017-08-18T15:44:34.209Z,99545.83
2017-08-18T15:54:58.514Z,99557.17
2017-08-18T16:05:20.992Z,99549.97
2017-08-18T16:15:42.886Z,99538.28
2017-08-18T16:26:05.378Z,99538.55
2017-08-18T16:31:11.148Z,99538.92
2017-08-18T16:46:48.909Z,99538.09
2017-08-18T16:57:11.486Z,99551.92
2017-08-18T17:07:34.111Z,99536.77
2017-08-18T17:17:56.753Z,99551.21
2017-08-18T17:28:19.570Z,99554.62
2017-08-18T17:38:41.396Z,99567.83
2017-08-18T17:49:04.451Z,99569.19
2017-08-18T17:59:26.398Z,99574.92
2017-08-18T18:09:49.317Z,99605.83
2017-08-18T18:20:12.732Z,99609.41
2017-08-18T18:30:35.800Z,99603.40
2017-08-18T18:46:16.400Z,99609.36
2017-08-18T18:56:39.736Z,99630.60
2017-08-18T19:07:01.682Z,99635.45
2017-08-18T19:17:24.303Z,99670.45
2017-08-18T19:27:45.996Z,99688.77
2017-08-18T19:38:08.108Z,99700.42
2017-08-18T19:48:30.105Z,99687.72
2017-08-18T19:58:51.948Z,99677.12
2017-08-18T20:09:14.899Z,99683.14
2017-08-18T20:19:37.506Z,99686.30
2017-08-18T20:30:00.022Z,99692.12
2017-08-18T20:45:39.402Z,99673.63
2017-08-18T20:56:01.361Z,99677.61
2017-08-18T21:06:24.690Z,99671.68
2017-08-18T21:16:46.586Z,99674.96
2017-08-18T21:27:13.324Z,99687.38
2017-08-18T21:37:35.636Z,99692.17
2017-08-18T21:47:58.976Z,99695.73
2017-08-18T21:59:21.489Z,99708.49
2017-08-18T22:09:44.052Z,99727.91
2017-08-18T22:20:07.383Z,99764.37
2017-08-18T22:30:29.104Z,99751.79
2017-08-18T22:46:07.607Z,99762.97
2017-08-18T22:51:14.593Z,99762.53
2017-08-18T23:01:37.329Z,99776.42
2017-08-18T23:12:01.907Z,99776.50
2017-08-18T23:22:24.849Z,99781.13
2017-08-18T23:32:48.462Z,99780.95
2017-08-18T23:48:28.149Z,99789.36
